<?xml version="1.0" encoding="UTF-8" standalone="no" ?>
<gpx xmlns="http://www.topografix.com/GPX/1/1" xmlns:xsi="http://www.w3.org/2001/XMLSchema-instance" xsi:schemaLocation="http://www.topografix.com/GPX/1/1 http://www.topografix.com/GPX/1/1/gpx.xsd" version="1.1" creator="VisuGPX - https://www.visugpx.com">
  <metadata>
    <name>Descente de l'Ours 2 - Pertuiset</name>
  </metadata>
  <trk>
    <name><![CDATA[Descente de l'Ours 2 - Pertuiset_1]]></name>
    <trkseg>
      <trkpt lat="45.40698" lon="4.23719">
        <ele>565.6</ele>
        <time>2021-10-17T09:10:23Z</time>
      </trkpt>
      <trkpt lat="45.40697" lon="4.23721">
        <ele>564.6</ele>
        <time>2021-10-17T09:10:30Z</time>
      </trkpt>
      <trkpt lat="45.40694" lon="4.23736">
        <ele>563.8</ele>
        <time>2021-10-17T09:10:34Z</time>
      </trkpt>
      <trkpt lat="45.40693" lon="4.23742">
        <ele>562.8</ele>
        <time>2021-10-17T09:10:35Z</time>
      </trkpt>
      <trkpt lat="45.40691" lon="4.23747">
        <ele>561.4</ele>
        <time>2021-10-17T09:10:36Z</time>
      </trkpt>
      <trkpt lat="45.4069" lon="4.23751">
        <ele>560.2</ele>
        <time>2021-10-17T09:10:37Z</time>
      </trkpt>
      <trkpt lat="45.40688" lon="4.23758">
        <ele>558.6</ele>
        <time>2021-10-17T09:10:39Z</time>
      </trkpt>
      <trkpt lat="45.40688" lon="4.23761">
        <ele>558</ele>
        <time>2021-10-17T09:10:40Z</time>
      </trkpt>
      <trkpt lat="45.40686" lon="4.23766">
        <ele>557.6</ele>
        <time>2021-10-17T09:10:41Z</time>
      </trkpt>
      <trkpt lat="45.40682" lon="4.23774">
        <ele>555.6</ele>
        <time>2021-10-17T09:10:43Z</time>
      </trkpt>
      <trkpt lat="45.4068" lon="4.23778">
        <ele>554.2</ele>
        <time>2021-10-17T09:10:44Z</time>
      </trkpt>
      <trkpt lat="45.40676" lon="4.23788">
        <ele>552.8</ele>
        <time>2021-10-17T09:10:46Z</time>
      </trkpt>
      <trkpt lat="45.40674" lon="4.23792">
        <ele>551.6</ele>
        <time>2021-10-17T09:10:47Z</time>
      </trkpt>
      <trkpt lat="45.40671" lon="4.23798">
        <ele>550</ele>
        <time>2021-10-17T09:10:48Z</time>
      </trkpt>
      <trkpt lat="45.40669" lon="4.23805">
        <ele>548</ele>
        <time>2021-10-17T09:10:49Z</time>
      </trkpt>
      <trkpt lat="45.40666" lon="4.23811">
        <ele>545.8</ele>
        <time>2021-10-17T09:10:50Z</time>
      </trkpt>
      <trkpt lat="45.40664" lon="4.23816">
        <ele>543.8</ele>
        <time>2021-10-17T09:10:51Z</time>
      </trkpt>
      <trkpt lat="45.40662" lon="4.23821">
        <ele>542.4</ele>
        <time>2021-10-17T09:10:52Z</time>
      </trkpt>
      <trkpt lat="45.40661" lon="4.23828">
        <ele>541.4</ele>
        <time>2021-10-17T09:10:53Z</time>
      </trkpt>
      <trkpt lat="45.4066" lon="4.23835">
        <ele>540.2</ele>
        <time>2021-10-17T09:10:54Z</time>
      </trkpt>
      <trkpt lat="45.4066" lon="4.23847">
        <ele>538.4</ele>
        <time>2021-10-17T09:10:56Z</time>
      </trkpt>
      <trkpt lat="45.4066" lon="4.23855">
        <ele>537</ele>
        <time>2021-10-17T09:10:58Z</time>
      </trkpt>
      <trkpt lat="45.40659" lon="4.23869">
        <ele>536</ele>
        <time>2021-10-17T09:11:01Z</time>
      </trkpt>
      <trkpt lat="45.4066" lon="4.23872">
        <ele>535.8</ele>
        <time>2021-10-17T09:11:02Z</time>
      </trkpt>
      <trkpt lat="45.40661" lon="4.23882">
        <ele>534.2</ele>
        <time>2021-10-17T09:11:04Z</time>
      </trkpt>
      <trkpt lat="45.40662" lon="4.23887">
        <ele>533.2</ele>
        <time>2021-10-17T09:11:05Z</time>
      </trkpt>
      <trkpt lat="45.40664" lon="4.23895">
        <ele>531.2</ele>
        <time>2021-10-17T09:11:07Z</time>
      </trkpt>
      <trkpt lat="45.40665" lon="4.23907">
        <ele>529.8</ele>
        <time>2021-10-17T09:11:09Z</time>
      </trkpt>
      <trkpt lat="45.40663" lon="4.2392">
        <ele>528.6</ele>
        <time>2021-10-17T09:11:11Z</time>
      </trkpt>
      <trkpt lat="45.40665" lon="4.23932">
        <ele>527.8</ele>
        <time>2021-10-17T09:11:13Z</time>
      </trkpt>
      <trkpt lat="45.40665" lon="4.23946">
        <ele>527.4</ele>
        <time>2021-10-17T09:11:15Z</time>
      </trkpt>
      <trkpt lat="45.40665" lon="4.2396">
        <ele>526.4</ele>
        <time>2021-10-17T09:11:17Z</time>
      </trkpt>
      <trkpt lat="45.40665" lon="4.23967">
        <ele>525.8</ele>
        <time>2021-10-17T09:11:18Z</time>
      </trkpt>
      <trkpt lat="45.40665" lon="4.23973">
        <ele>525.2</ele>
        <time>2021-10-17T09:11:19Z</time>
      </trkpt>
      <trkpt lat="45.40665" lon="4.23993">
        <ele>523.8</ele>
        <time>2021-10-17T09:11:24Z</time>
      </trkpt>
      <trkpt lat="45.40665" lon="4.23999">
        <ele>523.2</ele>
        <time>2021-10-17T09:11:26Z</time>
      </trkpt>
      <trkpt lat="45.40665" lon="4.24007">
        <ele>522.2</ele>
        <time>2021-10-17T09:11:28Z</time>
      </trkpt>
      <trkpt lat="45.40664" lon="4.24017">
        <ele>521</ele>
        <time>2021-10-17T09:11:30Z</time>
      </trkpt>
      <trkpt lat="45.40665" lon="4.24027">
        <ele>519.4</ele>
        <time>2021-10-17T09:11:32Z</time>
      </trkpt>
      <trkpt lat="45.40667" lon="4.24042">
        <ele>518.4</ele>
        <time>2021-10-17T09:11:35Z</time>
      </trkpt>
      <trkpt lat="45.40669" lon="4.24064">
        <ele>517.2</ele>
        <time>2021-10-17T09:11:40Z</time>
      </trkpt>
      <trkpt lat="45.40669" lon="4.24071">
        <ele>515.8</ele>
        <time>2021-10-17T09:11:42Z</time>
      </trkpt>
      <trkpt lat="45.40672" lon="4.24077">
        <ele>514</ele>
        <time>2021-10-17T09:11:44Z</time>
      </trkpt>
      <trkpt lat="45.40674" lon="4.24084">
        <ele>512.4</ele>
        <time>2021-10-17T09:11:46Z</time>
      </trkpt>
      <trkpt lat="45.40676" lon="4.24088">
        <ele>511.2</ele>
        <time>2021-10-17T09:11:47Z</time>
      </trkpt>
      <trkpt lat="45.40677" lon="4.24091">
        <ele>510.2</ele>
        <time>2021-10-17T09:11:48Z</time>
      </trkpt>
      <trkpt lat="45.40679" lon="4.24097">
        <ele>508.4</ele>
        <time>2021-10-17T09:11:50Z</time>
      </trkpt>
      <trkpt lat="45.4068" lon="4.24103">
        <ele>507.2</ele>
        <time>2021-10-17T09:11:52Z</time>
      </trkpt>
      <trkpt lat="45.4068" lon="4.24108">
        <ele>506</ele>
        <time>2021-10-17T09:11:54Z</time>
      </trkpt>
      <trkpt lat="45.40681" lon="4.24109">
        <ele>505.4</ele>
        <time>2021-10-17T09:11:55Z</time>
      </trkpt>
      <trkpt lat="45.40683" lon="4.24112">
        <ele>504.8</ele>
        <time>2021-10-17T09:11:56Z</time>
      </trkpt>
      <trkpt lat="45.40688" lon="4.24122">
        <ele>503.6</ele>
        <time>2021-10-17T09:11:59Z</time>
      </trkpt>
      <trkpt lat="45.40689" lon="4.24126">
        <ele>503</ele>
        <time>2021-10-17T09:12:00Z</time>
      </trkpt>
      <trkpt lat="45.4069" lon="4.24132">
        <ele>501.6</ele>
        <time>2021-10-17T09:12:02Z</time>
      </trkpt>
      <trkpt lat="45.40691" lon="4.24135">
        <ele>500.4</ele>
        <time>2021-10-17T09:12:03Z</time>
      </trkpt>
      <trkpt lat="45.40691" lon="4.24139">
        <ele>499.4</ele>
        <time>2021-10-17T09:12:04Z</time>
      </trkpt>
      <trkpt lat="45.40689" lon="4.24146">
        <ele>498</ele>
        <time>2021-10-17T09:12:06Z</time>
      </trkpt>
      <trkpt lat="45.40689" lon="4.2415">
        <ele>497.8</ele>
        <time>2021-10-17T09:12:07Z</time>
      </trkpt>
      <trkpt lat="45.40691" lon="4.24157">
        <ele>496.6</ele>
        <time>2021-10-17T09:12:09Z</time>
      </trkpt>
      <trkpt lat="45.40693" lon="4.24162">
        <ele>495.2</ele>
        <time>2021-10-17T09:12:11Z</time>
      </trkpt>
      <trkpt lat="45.40693" lon="4.24171">
        <ele>494</ele>
        <time>2021-10-17T09:12:13Z</time>
      </trkpt>
      <trkpt lat="45.40696" lon="4.24182">
        <ele>492.6</ele>
        <time>2021-10-17T09:12:15Z</time>
      </trkpt>
      <trkpt lat="45.40703" lon="4.2419">
        <ele>491.2</ele>
        <time>2021-10-17T09:12:17Z</time>
      </trkpt>
      <trkpt lat="45.40706" lon="4.24194">
        <ele>490.4</ele>
        <time>2021-10-17T09:12:18Z</time>
      </trkpt>
      <trkpt lat="45.40708" lon="4.24199">
        <ele>489.6</ele>
        <time>2021-10-17T09:12:19Z</time>
      </trkpt>
      <trkpt lat="45.40714" lon="4.24212">
        <ele>488.4</ele>
        <time>2021-10-17T09:12:22Z</time>
      </trkpt>
      <trkpt lat="45.40719" lon="4.24218">
        <ele>487.2</ele>
        <time>2021-10-17T09:12:24Z</time>
      </trkpt>
      <trkpt lat="45.40722" lon="4.24227">
        <ele>485.6</ele>
        <time>2021-10-17T09:12:26Z</time>
      </trkpt>
      <trkpt lat="45.40725" lon="4.24239">
        <ele>484.4</ele>
        <time>2021-10-17T09:12:29Z</time>
      </trkpt>
      <trkpt lat="45.40733" lon="4.24254">
        <ele>483</ele>
        <time>2021-10-17T09:12:33Z</time>
      </trkpt>
      <trkpt lat="45.40735" lon="4.24261">
        <ele>481.6</ele>
        <time>2021-10-17T09:12:35Z</time>
      </trkpt>
      <trkpt lat="45.40737" lon="4.24267">
        <ele>480</ele>
        <time>2021-10-17T09:12:37Z</time>
      </trkpt>
      <trkpt lat="45.4074" lon="4.24271">
        <ele>478.8</ele>
        <time>2021-10-17T09:12:39Z</time>
      </trkpt>
      <trkpt lat="45.4074" lon="4.24277">
        <ele>477.4</ele>
        <time>2021-10-17T09:12:41Z</time>
      </trkpt>
      <trkpt lat="45.40741" lon="4.2428">
        <ele>476.8</ele>
        <time>2021-10-17T09:12:42Z</time>
      </trkpt>
      <trkpt lat="45.40743" lon="4.24283">
        <ele>476</ele>
        <time>2021-10-17T09:12:43Z</time>
      </trkpt>
      <trkpt lat="45.40747" lon="4.24291">
        <ele>474.4</ele>
        <time>2021-10-17T09:12:45Z</time>
      </trkpt>
      <trkpt lat="45.40748" lon="4.24298">
        <ele>473</ele>
        <time>2021-10-17T09:12:47Z</time>
      </trkpt>
      <trkpt lat="45.40751" lon="4.24301">
        <ele>471.2</ele>
        <time>2021-10-17T09:12:49Z</time>
      </trkpt>
      <trkpt lat="45.40753" lon="4.24308">
        <ele>470</ele>
        <time>2021-10-17T09:12:51Z</time>
      </trkpt>
      <trkpt lat="45.40755" lon="4.24313">
        <ele>469</ele>
        <time>2021-10-17T09:12:53Z</time>
      </trkpt>
      <trkpt lat="45.40759" lon="4.24319">
        <ele>467.8</ele>
        <time>2021-10-17T09:12:56Z</time>
      </trkpt>
      <trkpt lat="45.40761" lon="4.24322">
        <ele>466.6</ele>
        <time>2021-10-17T09:12:58Z</time>
      </trkpt>
      <trkpt lat="45.40762" lon="4.24329">
        <ele>465.2</ele>
        <time>2021-10-17T09:13:00Z</time>
      </trkpt>
      <trkpt lat="45.40764" lon="4.24333">
        <ele>464.2</ele>
        <time>2021-10-17T09:13:02Z</time>
      </trkpt>
      <trkpt lat="45.40766" lon="4.2434">
        <ele>463</ele>
        <time>2021-10-17T09:13:04Z</time>
      </trkpt>
      <trkpt lat="45.40767" lon="4.24347">
        <ele>461.4</ele>
        <time>2021-10-17T09:13:06Z</time>
      </trkpt>
      <trkpt lat="45.40767" lon="4.24351">
        <ele>460.2</ele>
        <time>2021-10-17T09:13:08Z</time>
      </trkpt>
      <trkpt lat="45.40766" lon="4.24357">
        <ele>459</ele>
        <time>2021-10-17T09:13:12Z</time>
      </trkpt>
      <trkpt lat="45.40767" lon="4.2436">
        <ele>458</ele>
        <time>2021-10-17T09:13:15Z</time>
      </trkpt>
      <trkpt lat="45.40769" lon="4.24358">
        <ele>456.8</ele>
        <time>2021-10-17T09:13:20Z</time>
      </trkpt>
      <trkpt lat="45.40771" lon="4.24351">
        <ele>455.6</ele>
        <time>2021-10-17T09:13:23Z</time>
      </trkpt>
      <trkpt lat="45.40773" lon="4.24342">
        <ele>454.8</ele>
        <time>2021-10-17T09:13:25Z</time>
      </trkpt>
      <trkpt lat="45.40774" lon="4.24338">
        <ele>454.4</ele>
        <time>2021-10-17T09:13:26Z</time>
      </trkpt>
      <trkpt lat="45.40775" lon="4.24329">
        <ele>453.2</ele>
        <time>2021-10-17T09:13:30Z</time>
      </trkpt>
      <trkpt lat="45.40777" lon="4.24322">
        <ele>452.6</ele>
        <time>2021-10-17T09:13:35Z</time>
      </trkpt>
      <trkpt lat="45.40779" lon="4.24321">
        <ele>452</ele>
        <time>2021-10-17T09:13:37Z</time>
      </trkpt>
      <trkpt lat="45.40781" lon="4.24325">
        <ele>450.4</ele>
        <time>2021-10-17T09:13:40Z</time>
      </trkpt>
      <trkpt lat="45.40783" lon="4.24329">
        <ele>449.4</ele>
        <time>2021-10-17T09:13:42Z</time>
      </trkpt>
      <trkpt lat="45.4079" lon="4.24341">
        <ele>448.2</ele>
        <time>2021-10-17T09:13:46Z</time>
      </trkpt>
      <trkpt lat="45.40793" lon="4.24352">
        <ele>446.4</ele>
        <time>2021-10-17T09:13:48Z</time>
      </trkpt>
      <trkpt lat="45.40794" lon="4.24357">
        <ele>445.4</ele>
        <time>2021-10-17T09:13:49Z</time>
      </trkpt>
      <trkpt lat="45.40795" lon="4.24372">
        <ele>444.2</ele>
        <time>2021-10-17T09:13:52Z</time>
      </trkpt>
      <trkpt lat="45.40795" lon="4.24385">
        <ele>444</ele>
        <time>2021-10-17T09:13:54Z</time>
      </trkpt>
      <trkpt lat="45.40787" lon="4.24408">
        <ele>443.6</ele>
        <time>2021-10-17T09:13:59Z</time>
      </trkpt>
      <trkpt lat="45.40787" lon="4.24409">
        <ele>443.6</ele>
        <time>2021-10-17T09:14:01Z</time>
      </trkpt>
    </trkseg>
  </trk>
</gpx>